createdAt,value
2022-11-21T00:03:51.977Z,93.82
2022-11-21T00:08:52.059Z,92.89
2022-11-21T00:13:52.447Z,90.68
2022-11-21T00:18:51.561Z,90.74
2022-11-21T00:23:54.080Z,91.30
2022-11-21T00:28:55.147Z,91.92
2022-11-21T00:33:54.242Z,90.89
2022-11-21T00:38:55.334Z,91.96
2022-11-21T00:43:56.570Z,92.79
2022-11-21T00:48:57.813Z,92.48
2022-11-21T00:53:58.903Z,90.68
2022-11-21T00:59:00.187Z,92.27
2022-11-21T01:04:01.288Z,92.58
2022-11-21T01:09:02.369Z,93.41
2022-11-21T01:14:04.607Z,92.00
2022-11-21T01:19:03.870Z,91.44
2022-11-21T01:24:05.033Z,90.52
2022-11-21T01:29:05.500Z,89.28
2022-11-21T01:34:07.658Z,90.62
2022-11-21T01:39:06.984Z,90.62
2022-11-21T01:44:08.239Z,93.04
2022-11-21T01:49:09.572Z,93.80
2022-11-21T01:54:11.647Z,93.45
2022-11-21T01:59:10.890Z,92.00
2022-11-21T02:04:11.963Z,91.90
2022-11-21T02:09:14.092Z,91.44
2022-11-21T02:14:14.202Z,91.03
2022-11-21T02:19:13.298Z,90.41
2022-11-21T02:24:14.556Z,91.38
2022-11-21T02:29:15.775Z,90.83
2022-11-21T02:34:17.272Z,90.52
2022-11-21T02:39:16.655Z,91.38
2022-11-21T02:44:18.072Z,90.10
2022-11-21T02:49:20.169Z,89.69
2022-11-21T02:54:19.346Z,88.96
2022-11-21T02:59:21.513Z,89.69
2022-11-21T03:04:20.768Z,88.90
2022-11-21T03:09:22.938Z,88.76
2022-11-21T03:14:22.465Z,88.45
2022-11-21T03:19:21.569Z,86.34
2022-11-21T03:24:22.742Z,85.47
2022-11-21T03:29:25.055Z,87.23
2022-11-21T03:34:25.742Z,88.71
2022-11-21T03:39:25.249Z,89.17
2022-11-21T03:44:26.567Z,88.10
2022-11-21T03:49:25.890Z,87.68
2022-11-21T03:54:28.097Z,88.61
2022-11-21T03:59:27.617Z,89.44
2022-11-21T04:04:29.343Z,89.59
2022-11-21T04:09:28.696Z,89.69
2022-11-21T04:14:30.326Z,90.77
2022-11-21T04:19:31.651Z,89.73
2022-11-21T04:24:31.337Z,90.66
2022-11-21T04:29:30.584Z,90.77
2022-11-21T04:34:31.770Z,90.77
2022-11-21T04:39:33.854Z,90.87
2022-11-21T04:44:32.989Z,91.32
2022-11-21T04:49:34.276Z,91.69
2022-11-21T04:54:36.404Z,90.97
2022-11-21T04:59:35.578Z,91.17
2022-11-21T05:04:36.812Z,90.14
2022-11-21T05:09:37.077Z,89.11
2022-11-21T05:14:38.536Z,89.73
2022-11-21T05:19:39.779Z,89.94
2022-11-21T05:24:40.882Z,88.96
2022-11-21T05:29:42.397Z,89.32
2022-11-21T05:34:41.566Z,88.76
2022-11-21T05:39:44.417Z,88.90
2022-11-21T05:44:44.587Z,88.49
2022-11-21T05:49:43.851Z,90.08
2022-11-21T05:54:46.256Z,89.22
2022-11-21T05:59:45.550Z,90.35
2022-11-21T06:04:47.682Z,89.28
2022-11-21T06:09:46.783Z,89.07
2022-11-21T06:14:47.956Z,88.86
2022-11-21T06:19:49.151Z,87.89
2022-11-21T06:24:51.241Z,86.96
2022-11-21T06:29:50.520Z,85.17
2022-11-21T06:34:51.744Z,85.44
2022-11-21T06:39:52.849Z,86.10
2022-11-21T06:44:55.381Z,85.33
2022-11-21T06:49:54.464Z,84.92
2022-11-21T06:54:55.571Z,83.61
2022-11-21T06:59:56.719Z,82.89
2022-11-21T07:04:57.868Z,83.71
2022-11-21T07:10:02.931Z,83.91
2022-11-21T07:15:00.048Z,84.33
2022-11-21T07:20:01.170Z,83.09
2022-11-21T07:25:02.297Z,84.99
2022-11-21T07:30:03.393Z,83.40
2022-11-21T07:35:04.470Z,83.15
2022-11-21T07:40:05.573Z,83.71
2022-11-21T07:45:08.701Z,85.09
2022-11-21T07:50:08.803Z,82.33
2022-11-21T07:55:08.963Z,83.56
2022-11-21T08:00:07.129Z,82.56
2022-11-21T08:05:08.420Z,82.50
2022-11-21T08:10:09.491Z,83.32
2022-11-21T08:15:11.604Z,83.53
2022-11-21T08:20:11.744Z,84.05
2022-11-21T08:25:12.818Z,83.53
2022-11-21T08:30:12.009Z,84.25
2022-11-21T08:35:13.183Z,83.53
2022-11-21T08:40:15.301Z,82.60
2022-11-21T08:45:14.430Z,81.70
2022-11-21T08:50:15.583Z,79.47
2022-11-21T08:55:17.035Z,79.57
2022-11-21T09:00:18.171Z,78.81
2022-11-21T09:05:20.266Z,79.60
2022-11-21T09:10:19.859Z,79.64
2022-11-21T09:15:19.335Z,81.43
2022-11-21T09:20:20.602Z,81.84
2022-11-21T09:25:22.981Z,81.49
2022-11-21T09:30:22.094Z,80.74
2022-11-21T09:35:23.229Z,80.84
2022-11-21T09:40:26.446Z,80.19
2022-11-21T09:45:25.565Z,79.22
2022-11-21T09:50:27.179Z,78.27
2022-11-21T09:55:26.247Z,76.55
2022-11-21T10:00:29.751Z,74.73
2022-11-21T10:05:27.917Z,73.23
2022-11-21T10:10:27.533Z,73.13
2022-11-21T10:15:26.674Z,73.40
2022-11-21T10:20:28.790Z,72.04
2022-11-21T10:25:28.871Z,72.89
2022-11-21T10:30:28.205Z,73.06
2022-11-21T10:35:30.619Z,69.92
2022-11-21T10:40:30.718Z,70.64
2022-11-21T10:45:30.144Z,71.15
2022-11-21T10:50:32.300Z,69.82
2022-11-21T10:55:31.397Z,71.36
2022-11-21T11:00:33.643Z,70.40
2022-11-21T11:05:33.790Z,67.36
2022-11-21T11:10:33.106Z,69.85
2022-11-21T11:15:34.213Z,70.43
2022-11-21T11:20:35.473Z,69.45
2022-11-21T11:25:38.588Z,68.87
2022-11-21T11:30:38.714Z,68.28
2022-11-21T11:35:38.941Z,69.48
2022-11-21T11:40:39.084Z,69.38
2022-11-21T11:45:38.258Z,68.93
2022-11-21T11:50:40.381Z,68.60
2022-11-21T11:55:39.493Z,68.05
2022-11-21T12:00:42.609Z,67.58
2022-11-21T12:05:41.681Z,66.05
2022-11-21T12:10:44.769Z,66.36
2022-11-21T12:15:43.883Z,67.45
2022-11-21T12:20:46.108Z,67.04
2022-11-21T12:25:45.340Z,64.18
2022-11-21T12:30:47.551Z,65.71
2022-11-21T12:35:47.264Z,64.66
2022-11-21T12:40:46.457Z,64.36
2022-11-21T12:45:47.666Z,64.97
2022-11-21T12:50:50.845Z,64.76
2022-11-21T12:55:50.170Z,65.31
2022-11-21T13:00:51.414Z,65.95
2022-11-21T13:05:52.578Z,66.21
2022-11-21T13:10:53.721Z,67.27
2022-11-21T13:15:57.886Z,68.42
2022-11-21T13:20:55.044Z,68.25
2022-11-21T13:25:56.171Z,69.41
2022-11-21T13:30:57.299Z,69.10
2022-11-21T13:35:58.455Z,69.03
2022-11-21T13:41:00.612Z,68.86
2022-11-21T13:45:59.777Z,71.25
2022-11-21T13:51:02.916Z,70.50
2022-11-21T13:56:02.059Z,71.08
2022-11-21T14:01:03.243Z,73.13
2022-11-21T14:06:04.420Z,74.87
2022-11-21T14:11:05.520Z,73.64
2022-11-21T14:16:06.597Z,74.15
2022-11-21T14:21:08.190Z,75.28
2022-11-21T14:26:07.383Z,74.05
2022-11-21T14:31:08.839Z,74.77
2022-11-21T14:36:10.971Z,75.42
2022-11-21T14:41:11.666Z,76.17
2022-11-21T14:46:10.781Z,75.80
2022-11-21T14:51:12.019Z,79.22
2022-11-21T14:56:14.125Z,80.35
2022-11-21T15:01:14.270Z,80.60
2022-11-21T15:06:15.465Z,82.18
2022-11-21T15:11:14.584Z,81.25
2022-11-21T15:16:15.732Z,81.39
2022-11-21T15:21:17.898Z,83.84
2022-11-21T15:26:18.039Z,83.47
2022-11-21T15:31:16.131Z,82.91
2022-11-21T15:36:17.220Z,81.57
2022-11-21T15:41:18.317Z,83.22
2022-11-21T15:46:19.518Z,85.52
2022-11-21T15:51:37.829Z,85.01
2022-11-21T15:56:23.134Z,87.29
2022-11-21T16:01:23.527Z,87.19
2022-11-21T16:06:22.646Z,86.12
2022-11-21T16:11:24.287Z,86.68
2022-11-21T16:16:24.450Z,86.71
2022-11-21T16:21:23.624Z,88.31
2022-11-21T16:26:24.694Z,88.76
2022-11-21T16:31:26.944Z,89.17
2022-11-21T16:36:27.278Z,90.45
2022-11-21T16:41:26.369Z,90.20
2022-11-21T16:46:27.770Z,89.94
2022-11-21T16:51:28.997Z,90.04
2022-11-21T16:56:32.096Z,91.22
2022-11-21T17:01:31.608Z,91.63
2022-11-21T17:06:30.976Z,91.94
2022-11-21T17:11:33.038Z,91.32
2022-11-21T17:16:32.440Z,92.19
2022-11-21T17:21:33.876Z,93.02
2022-11-21T17:26:35.151Z,93.74
2022-11-21T17:31:36.672Z,93.95
2022-11-21T17:36:36.103Z,93.33
2022-11-21T17:41:39.484Z,92.67
2022-11-21T17:46:38.942Z,92.97
2022-11-21T17:51:40.359Z,92.97
2022-11-21T17:56:46.436Z,92.87
2022-11-21T18:01:42.245Z,93.74
2022-11-21T18:06:41.693Z,94.37
2022-11-21T18:11:43.024Z,95.14
2022-11-21T18:16:52.493Z,94.72
2022-11-21T18:21:46.020Z,95.24
2022-11-21T18:26:47.181Z,94.93
2022-11-21T18:31:47.607Z,95.14
2022-11-21T18:36:47.131Z,94.68
2022-11-21T18:41:47.184Z,94.98
2022-11-21T18:46:47.067Z,94.89
2022-11-21T18:51:46.607Z,95.54
2022-11-21T18:56:47.251Z,95.86
2022-11-21T19:01:48.069Z,96.17
2022-11-21T19:06:47.564Z,94.78
2022-11-21T19:11:47.057Z,95.09
2022-11-21T19:16:48.646Z,94.26
2022-11-21T19:21:49.448Z,94.22
2022-11-21T19:26:49.001Z,94.01
2022-11-21T19:31:48.523Z,93.04
2022-11-21T19:36:48.041Z,93.04
2022-11-21T19:41:48.202Z,91.17
2022-11-21T19:46:47.399Z,86.86
2022-11-21T19:51:50.719Z,78.04
2022-11-21T19:56:50.057Z,84.99
2022-11-21T20:01:53.091Z,87.19
2022-11-21T20:06:51.716Z,86.82
2022-11-21T20:11:53.271Z,85.47
2022-11-21T20:16:52.920Z,80.55
2022-11-21T20:21:52.243Z,79.14
2022-11-21T20:26:53.554Z,80.58
2022-11-21T20:31:54.021Z,82.02
2022-11-21T20:36:55.797Z,82.84
2022-11-21T20:41:54.209Z,83.63
2022-11-21T20:46:55.667Z,84.35
2022-11-21T20:56:57.069Z,86.31
2022-11-21T21:01:56.574Z,86.61
2022-11-21T21:06:55.884Z,86.82
2022-11-21T21:11:59.159Z,86.79
2022-11-21T21:16:58.325Z,87.60
2022-11-21T21:21:59.487Z,87.40
2022-11-21T21:27:01.631Z,86.99
2022-11-21T21:32:00.771Z,86.79
2022-11-21T21:37:01.889Z,86.79
2022-11-21T21:42:04.040Z,86.58
2022-11-21T21:47:03.188Z,86.79
2022-11-21T21:52:04.319Z,86.47
2022-11-21T21:57:06.436Z,86.99
2022-11-21T22:02:06.671Z,86.27
2022-11-21T22:07:05.958Z,86.88
2022-11-21T22:12:07.135Z,86.85
2022-11-21T22:17:08.221Z,86.47
2022-11-21T22:22:09.342Z,86.43
2022-11-21T22:27:10.510Z,85.41
2022-11-21T22:32:16.734Z,86.13
2022-11-21T22:37:12.641Z,86.68
2022-11-21T22:42:14.000Z,87.81
2022-11-21T22:47:15.129Z,88.74
2022-11-21T22:52:17.316Z,90.12
2022-11-21T22:57:17.010Z,91.05
2022-11-21T23:02:16.194Z,92.43
2022-11-21T23:07:17.375Z,91.60
2022-11-21T23:12:19.991Z,92.33
2022-11-21T23:17:19.205Z,91.30
2022-11-21T23:22:19.391Z,91.81
2022-11-21T23:27:20.493Z,92.63
2022-11-21T23:32:21.715Z,92.22
2022-11-21T23:37:23.923Z,92.02
2022-11-21T23:42:23.043Z,90.47
2022-11-21T23:47:24.161Z,88.78
2022-11-21T23:52:26.298Z,87.96
2022-11-21T23:57:25.470Z,88.06
